createdAt,value
2022-08-30T00:00:38.263Z,60.15
2022-08-30T00:01:41.894Z,60.20
2022-08-30T00:02:45.307Z,60.23
2022-08-30T00:03:48.540Z,60.22
2022-08-30T00:04:53.650Z,60.23
2022-08-30T00:05:56.771Z,60.18
2022-08-30T00:07:02.085Z,60.19
2022-08-30T00:08:05.214Z,60.19
2022-08-30T00:09:08.617Z,60.28
2022-08-30T00:10:12.352Z,60.31
2022-08-30T00:11:18.963Z,60.31
2022-08-30T00:12:22.156Z,60.33
2022-08-30T00:13:25.439Z,60.29
2022-08-30T00:14:28.679Z,60.35
2022-08-30T00:15:31.883Z,60.32
2022-08-30T00:16:35.648Z,60.31
2022-08-30T00:17:39.190Z,60.17
2022-08-30T00:18:42.775Z,60.11
2022-08-30T00:19:46.896Z,59.93
2022-08-30T00:20:51.054Z,59.74
2022-08-30T00:21:55.545Z,59.74
2022-08-30T00:22:58.409Z,59.65
2022-08-30T00:24:01.666Z,59.61
2022-08-30T00:25:05.654Z,59.70
2022-08-30T00:26:09.057Z,59.73
2022-08-30T00:27:12.051Z,59.75
2022-08-30T00:28:16.364Z,59.73
2022-08-30T00:29:20.034Z,59.68
2022-08-30T00:30:23.570Z,59.62
2022-08-30T00:31:26.735Z,59.76
2022-08-30T00:32:30.662Z,59.75
2022-08-30T00:33:33.933Z,59.79
2022-08-30T00:34:37.021Z,59.85
2022-08-30T00:35:41.022Z,59.88
2022-08-30T00:36:45.211Z,59.93
2022-08-30T00:37:48.515Z,59.99
2022-08-30T00:38:51.547Z,60.13
2022-08-30T00:39:54.622Z,60.28
2022-08-30T00:40:59.233Z,60.45
2022-08-30T00:42:02.440Z,60.52
2022-08-30T00:43:09.585Z,60.68
2022-08-30T00:44:14.620Z,60.68
2022-08-30T00:45:23.986Z,60.84
2022-08-30T00:46:28.104Z,60.81
2022-08-30T00:47:31.349Z,60.85
2022-08-30T00:48:38.021Z,60.88
2022-08-30T00:49:49.468Z,60.87
2022-08-30T00:50:56.215Z,60.91
2022-08-30T00:52:01.953Z,61.01
2022-08-30T00:53:08.612Z,61.07
2022-08-30T00:54:12.207Z,61.04
2022-08-30T00:55:17.552Z,61.15
2022-08-30T00:56:22.851Z,61.09
2022-08-30T00:57:26.106Z,61.05
2022-08-30T00:58:32.582Z,61.10
2022-08-30T00:59:36.070Z,61.15
2022-08-30T01:00:39.786Z,61.19
2022-08-30T01:01:42.937Z,61.25
2022-08-30T01:02:46.340Z,61.12
2022-08-30T01:03:52.874Z,61.12
2022-08-30T01:04:57.210Z,61.42
2022-08-30T01:06:00.933Z,61.43
2022-08-30T01:07:04.069Z,61.10
2022-08-30T01:08:07.461Z,61.10
2022-08-30T01:09:10.669Z,61.47
2022-08-30T01:10:15.150Z,61.54
2022-08-30T01:11:21.646Z,61.95
2022-08-30T01:12:24.820Z,61.95
2022-08-30T01:13:28.020Z,61.56
2022-08-30T01:14:33.592Z,61.53
2022-08-30T01:15:38.275Z,61.50
2022-08-30T01:16:43.368Z,61.51
2022-08-30T01:17:47.543Z,61.57
2022-08-30T01:18:55.468Z,61.73
2022-08-30T01:20:07.956Z,61.68
2022-08-30T01:21:23.464Z,61.68
2022-08-30T01:22:36.333Z,61.73
2022-08-30T01:23:42.942Z,61.82
2022-08-30T01:24:50.275Z,61.92
2022-08-30T01:25:54.765Z,62.00
2022-08-30T01:26:58.500Z,62.11
2022-08-30T01:28:05.218Z,62.18
2022-08-30T01:29:11.923Z,62.25
2022-08-30T01:30:15.344Z,62.36
2022-08-30T01:31:19.132Z,62.42
2022-08-30T01:32:29.026Z,62.47
2022-08-30T01:33:31.418Z,62.50
2022-08-30T01:34:34.965Z,62.47
2022-08-30T01:35:44.545Z,62.45
2022-08-30T01:36:48.877Z,62.53
2022-08-30T01:37:52.140Z,62.55
2022-08-30T01:38:57.172Z,62.60
2022-08-30T01:40:00.473Z,62.64
2022-08-30T01:41:13.309Z,62.66
2022-08-30T01:42:17.657Z,62.72
2022-08-30T01:43:20.888Z,62.67
2022-08-30T01:44:24.007Z,62.65
2022-08-30T01:45:27.260Z,62.64
2022-08-30T01:46:35.496Z,62.61
2022-08-30T01:47:39.840Z,62.66
2022-08-30T01:48:47.348Z,62.69
2022-08-30T01:49:48.916Z,62.65
2022-08-30T01:50:52.547Z,62.67
2022-08-30T01:52:01.095Z,62.74
2022-08-30T01:53:01.398Z,62.79
2022-08-30T01:54:05.085Z,62.86
2022-08-30T01:55:09.068Z,62.89
2022-08-30T01:56:13.873Z,62.97
2022-08-30T01:57:20.589Z,62.99
2022-08-30T01:58:23.894Z,63.01
2022-08-30T01:59:27.065Z,63.13
2022-08-30T02:00:31.763Z,63.18
2022-08-30T02:01:38.682Z,63.37
2022-08-30T02:02:43.235Z,63.52
2022-08-30T02:03:47.874Z,63.71
2022-08-30T02:04:53.020Z,63.78
2022-08-30T02:05:56.535Z,63.85
2022-08-30T02:06:59.895Z,63.85
2022-08-30T02:08:03.670Z,64.03
2022-08-30T02:09:07.130Z,64.02
2022-08-30T02:10:10.646Z,64.05
2022-08-30T02:11:14.839Z,64.12
2022-08-30T02:12:18.491Z,64.14
2022-08-30T02:13:21.512Z,64.18
2022-08-30T02:14:25.026Z,64.15
2022-08-30T02:15:28.147Z,64.12
2022-08-30T02:16:31.901Z,64.09
2022-08-30T02:17:35.130Z,64.07
2022-08-30T02:18:39.461Z,63.98
2022-08-30T02:19:43.122Z,63.89
2022-08-30T02:20:46.488Z,63.78
2022-08-30T02:21:50.161Z,63.72
2022-08-30T02:22:53.280Z,63.73
2022-08-30T02:23:56.426Z,63.71
2022-08-30T02:25:00.445Z,63.60
2022-08-30T02:26:04.677Z,63.46
2022-08-30T02:27:07.701Z,63.38
2022-08-30T02:28:10.990Z,63.37
2022-08-30T02:29:16.169Z,63.33
2022-08-30T02:30:20.502Z,63.41
2022-08-30T02:31:23.705Z,63.52
2022-08-30T02:32:27.215Z,63.63
2022-08-30T02:33:31.331Z,63.48
2022-08-30T02:34:34.438Z,63.39
2022-08-30T02:35:37.526Z,63.32
2022-08-30T02:36:41.490Z,63.15
2022-08-30T02:37:44.622Z,63.09
2022-08-30T02:38:49.008Z,63.11
2022-08-30T02:39:52.143Z,63.25
2022-08-30T02:40:55.685Z,63.34
2022-08-30T02:41:58.919Z,63.30
2022-08-30T02:43:02.068Z,63.29
2022-08-30T02:44:06.613Z,63.30
2022-08-30T02:45:10.524Z,63.27
2022-08-30T02:46:14.537Z,63.28
2022-08-30T02:47:17.855Z,63.24
2022-08-30T02:48:20.971Z,63.07
2022-08-30T02:49:33.073Z,63.02
2022-08-30T02:50:30.717Z,62.95
2022-08-30T02:51:33.793Z,62.89
2022-08-30T02:52:37.449Z,62.79
2022-08-30T02:53:42.227Z,62.89
2022-08-30T02:54:45.706Z,62.95
2022-08-30T02:55:50.741Z,62.86
2022-08-30T02:56:54.198Z,62.82
2022-08-30T02:57:57.228Z,62.78
2022-08-30T02:59:00.516Z,62.74
2022-08-30T03:00:09.543Z,62.71
2022-08-30T03:01:15.479Z,62.80
2022-08-30T03:02:19.655Z,63.06
2022-08-30T03:03:23.169Z,63.08
2022-08-30T03:04:26.799Z,63.20
2022-08-30T03:05:32.428Z,63.30
2022-08-30T03:06:36.139Z,63.42
2022-08-30T03:07:41.048Z,63.68
2022-08-30T03:08:44.387Z,63.80
2022-08-30T03:09:47.644Z,63.89
2022-08-30T03:10:51.001Z,63.99
2022-08-30T03:11:54.124Z,64.06
2022-08-30T03:12:57.612Z,64.06
2022-08-30T03:14:00.746Z,64.05
2022-08-30T03:15:06.213Z,64.07
2022-08-30T03:16:09.468Z,64.01
2022-08-30T03:17:15.544Z,64.00
2022-08-30T03:18:18.792Z,63.90
2022-08-30T03:19:22.004Z,63.92
2022-08-30T03:20:26.125Z,63.83
2022-08-30T03:21:29.227Z,63.78
2022-08-30T03:22:32.367Z,63.66
2022-08-30T03:23:35.766Z,63.57
2022-08-30T03:24:38.935Z,63.47
2022-08-30T03:25:42.065Z,63.35
2022-08-30T03:26:46.776Z,63.34
2022-08-30T03:27:50.546Z,63.16
2022-08-30T03:28:53.773Z,63.02
2022-08-30T03:29:57.029Z,62.86
2022-08-30T03:31:00.633Z,62.82
2022-08-30T03:32:04.037Z,62.68
2022-08-30T03:33:07.208Z,62.68
2022-08-30T03:34:10.495Z,62.62
2022-08-30T03:35:14.473Z,62.56
2022-08-30T03:36:19.622Z,62.43
2022-08-30T03:37:27.259Z,62.40
2022-08-30T03:38:27.696Z,62.42
2022-08-30T03:39:31.369Z,62.35
2022-08-30T03:40:36.696Z,62.37
2022-08-30T03:41:41.276Z,62.33
2022-08-30T03:42:45.096Z,62.34
2022-08-30T03:43:48.186Z,62.24
2022-08-30T03:44:51.381Z,62.21
2022-08-30T03:45:54.544Z,62.25
2022-08-30T03:46:57.654Z,62.32
2022-08-30T03:48:02.055Z,62.31
2022-08-30T03:49:08.225Z,62.34
2022-08-30T03:50:14.211Z,62.40
2022-08-30T03:51:17.817Z,62.35
2022-08-30T03:52:20.941Z,62.32
2022-08-30T03:53:25.810Z,62.31
2022-08-30T03:54:30.928Z,62.20
2022-08-30T03:55:34.159Z,62.06
2022-08-30T03:56:37.719Z,62.01
2022-08-30T03:57:43.546Z,61.91
2022-08-30T03:58:46.806Z,61.94
2022-08-30T03:59:49.910Z,61.88
2022-08-30T04:00:53.365Z,61.96
2022-08-30T04:01:58.401Z,61.90
2022-08-30T04:03:01.566Z,61.75
2022-08-30T04:04:04.795Z,61.62
2022-08-30T04:05:09.791Z,61.55
2022-08-30T04:06:13.656Z,61.55
2022-08-30T04:07:18.701Z,61.47
2022-08-30T04:08:22.866Z,61.36
2022-08-30T04:09:26.154Z,61.32
2022-08-30T04:10:29.957Z,61.31
2022-08-30T04:11:33.495Z,61.33
2022-08-30T04:12:38.712Z,61.38
2022-08-30T04:13:43.210Z,61.35
2022-08-30T04:14:46.300Z,61.36
2022-08-30T04:15:50.033Z,61.26
2022-08-30T04:16:53.424Z,61.18
2022-08-30T04:17:56.812Z,61.17
2022-08-30T04:19:00.021Z,60.90
2022-08-30T04:20:03.878Z,60.81
2022-08-30T04:21:09.485Z,60.73
2022-08-30T04:22:12.389Z,60.67
2022-08-30T04:23:16.117Z,60.74
2022-08-30T04:24:19.488Z,60.74
2022-08-30T04:25:22.794Z,60.79
2022-08-30T04:26:29.234Z,60.88
2022-08-30T04:27:31.892Z,60.94
2022-08-30T04:28:35.528Z,60.95
2022-08-30T04:29:38.897Z,61.05
2022-08-30T04:30:44.366Z,61.08
2022-08-30T04:31:47.537Z,61.08
2022-08-30T04:32:52.044Z,60.95
2022-08-30T04:33:55.801Z,60.91
2022-08-30T04:34:59.713Z,60.82
2022-08-30T04:36:05.287Z,60.76
2022-08-30T04:37:09.908Z,60.72
2022-08-30T04:38:13.923Z,60.63
2022-08-30T04:39:20.163Z,60.53
2022-08-30T04:40:24.837Z,60.35
2022-08-30T04:41:27.913Z,60.30
2022-08-30T04:42:33.669Z,60.22
2022-08-30T04:43:36.690Z,60.21
2022-08-30T04:44:39.884Z,60.11
2022-08-30T04:45:43.018Z,60.05
2022-08-30T04:46:46.336Z,60.10
2022-08-30T04:47:49.651Z,60.10
2022-08-30T04:48:52.890Z,60.24
2022-08-30T04:49:56.170Z,60.28
2022-08-30T04:50:59.321Z,60.33
2022-08-30T04:52:02.801Z,60.31
2022-08-30T04:53:05.986Z,60.30
2022-08-30T04:54:09.127Z,60.33
2022-08-30T04:55:17.998Z,60.29
2022-08-30T04:56:24.676Z,60.25
2022-08-30T04:57:28.096Z,60.20
2022-08-30T04:58:31.256Z,60.16
2022-08-30T04:59:34.360Z,60.12
2022-08-30T05:00:37.671Z,60.04
2022-08-30T05:01:45.380Z,59.68
2022-08-30T05:02:46.463Z,59.68
2022-08-30T05:03:50.929Z,59.75
2022-08-30T05:05:12.507Z,59.87
2022-08-30T05:06:19.937Z,59.87
2022-08-30T05:07:23.091Z,59.41
2022-08-30T05:08:26.203Z,59.37
2022-08-30T05:09:29.309Z,59.45
2022-08-30T05:10:33.658Z,59.45
2022-08-30T05:11:37.647Z,59.04
2022-08-30T05:12:42.739Z,58.86
2022-08-30T05:13:46.238Z,58.72
2022-08-30T05:14:49.939Z,58.49
2022-08-30T05:15:54.192Z,58.39
2022-08-30T05:16:57.489Z,58.26
2022-08-30T05:18:00.579Z,57.50
2022-08-30T05:19:03.753Z,57.50
2022-08-30T05:20:09.467Z,57.71
2022-08-30T05:21:15.868Z,57.46
2022-08-30T05:22:19.175Z,57.41
2022-08-30T05:23:22.290Z,57.25
2022-08-30T05:24:25.671Z,57.01
2022-08-30T05:25:32.069Z,56.83
2022-08-30T05:26:38.112Z,56.74
2022-08-30T05:27:41.281Z,56.66
2022-08-30T05:28:44.932Z,56.49
2022-08-30T05:29:49.273Z,56.35
2022-08-30T05:30:52.515Z,56.33
2022-08-30T05:31:55.699Z,56.34
2022-08-30T05:32:58.946Z,56.43
2022-08-30T05:34:03.180Z,56.55
2022-08-30T05:35:07.571Z,56.52
2022-08-30T05:36:12.403Z,56.57
2022-08-30T05:37:15.649Z,56.54
2022-08-30T05:38:18.833Z,56.49
2022-08-30T05:39:21.980Z,56.56
2022-08-30T05:40:26.605Z,56.57
2022-08-30T05:41:32.339Z,56.56
2022-08-30T05:42:36.440Z,56.57
2022-08-30T05:43:39.940Z,56.54
2022-08-30T05:44:44.359Z,56.43
2022-08-30T05:45:47.569Z,56.24
2022-08-30T05:46:50.799Z,56.13
2022-08-30T05:47:53.873Z,56.11
2022-08-30T05:48:57.105Z,56.02
2022-08-30T05:50:00.319Z,55.86
2022-08-30T05:51:06.956Z,55.76
2022-08-30T05:52:10.118Z,55.70
2022-08-30T05:53:13.233Z,55.65
2022-08-30T05:54:17.178Z,55.67
2022-08-30T05:55:20.371Z,55.71
2022-08-30T05:56:26.568Z,55.81
2022-08-30T05:57:33.405Z,55.92
2022-08-30T05:58:39.793Z,55.91
2022-08-30T05:59:43.313Z,55.88
2022-08-30T06:00:47.135Z,55.78
2022-08-30T06:01:50.534Z,55.79
2022-08-30T06:02:54.305Z,55.79
2022-08-30T06:04:03.706Z,55.79
2022-08-30T06:05:05.508Z,55.78
2022-08-30T06:06:09.514Z,55.82
2022-08-30T06:07:14.925Z,55.71
2022-08-30T06:08:18.333Z,55.63
2022-08-30T06:09:21.711Z,55.50
2022-08-30T06:10:25.285Z,55.52
2022-08-30T06:11:28.427Z,55.37
2022-08-30T06:12:31.708Z,55.30
2022-08-30T06:13:35.228Z,55.13
2022-08-30T06:14:38.931Z,54.93
2022-08-30T06:15:46.567Z,54.82
2022-08-30T06:16:51.312Z,54.58
2022-08-30T06:17:54.495Z,54.30
2022-08-30T06:18:59.637Z,54.17
2022-08-30T06:20:03.145Z,53.97
2022-08-30T06:21:06.743Z,53.91
2022-08-30T06:22:09.916Z,53.90
2022-08-30T06:23:13.641Z,53.77
2022-08-30T06:24:17.095Z,53.67
2022-08-30T06:25:20.835Z,53.55
2022-08-30T06:26:25.163Z,53.43
2022-08-30T06:27:28.351Z,53.31
2022-08-30T06:28:31.896Z,53.23
2022-08-30T06:29:35.076Z,53.23
2022-08-30T06:30:42.444Z,53.26
2022-08-30T06:31:45.732Z,53.24
2022-08-30T06:32:48.874Z,53.23
2022-08-30T06:33:52.588Z,53.19
2022-08-30T06:34:55.680Z,53.09
2022-08-30T06:36:05.946Z,52.92
2022-08-30T06:37:09.633Z,52.91
2022-08-30T06:38:12.798Z,52.78
2022-08-30T06:39:16.072Z,52.60
2022-08-30T06:40:21.160Z,52.39
2022-08-30T06:41:27.495Z,52.22
2022-08-30T06:42:32.514Z,51.94
2022-08-30T06:43:35.886Z,51.76
2022-08-30T06:44:39.008Z,51.64
2022-08-30T06:45:42.153Z,51.59
2022-08-30T06:46:45.575Z,51.48
2022-08-30T06:47:48.909Z,51.32
2022-08-30T06:48:53.062Z,51.27
2022-08-30T06:49:58.819Z,51.08
2022-08-30T06:51:01.996Z,50.97
2022-08-30T06:52:06.072Z,50.95
2022-08-30T06:53:09.437Z,50.90
2022-08-30T06:54:12.947Z,50.82
2022-08-30T06:55:17.146Z,50.78
2022-08-30T06:56:22.132Z,50.76
2022-08-30T06:57:26.427Z,50.79
2022-08-30T06:58:31.714Z,50.79
2022-08-30T06:59:34.910Z,50.68
2022-08-30T07:00:38.351Z,50.67
2022-08-30T07:01:41.743Z,50.67
2022-08-30T07:02:44.954Z,50.65
2022-08-30T07:03:48.144Z,50.61
2022-08-30T07:04:51.453Z,50.48
2022-08-30T07:05:55.941Z,50.46
2022-08-30T07:06:59.456Z,50.46
2022-08-30T07:08:03.861Z,50.34
2022-08-30T07:09:06.994Z,50.24
2022-08-30T07:10:10.975Z,49.95
2022-08-30T07:11:14.190Z,49.76
2022-08-30T07:12:17.420Z,49.50
2022-08-30T07:13:21.257Z,49.37
2022-08-30T07:14:24.499Z,49.39
2022-08-30T07:15:27.626Z,49.16
2022-08-30T07:16:33.849Z,48.95
2022-08-30T07:17:55.069Z,48.63
2022-08-30T07:18:59.904Z,48.15
2022-08-30T07:20:04.938Z,47.73
2022-08-30T07:21:11.638Z,47.58
2022-08-30T07:22:14.860Z,47.45
2022-08-30T07:23:18.649Z,47.41
2022-08-30T07:24:21.845Z,47.45
2022-08-30T07:25:25.080Z,47.29
2022-08-30T07:26:35.493Z,47.27
2022-08-30T07:27:39.365Z,46.75
2022-08-30T07:28:44.695Z,46.44
2022-08-30T07:29:49.356Z,45.84
2022-08-30T07:30:53.042Z,45.04
2022-08-30T07:31:56.185Z,45.04
2022-08-30T07:32:59.451Z,44.83
2022-08-30T07:34:04.457Z,44.56
2022-08-30T07:35:08.414Z,44.33
2022-08-30T07:36:12.904Z,44.28
2022-08-30T07:37:18.059Z,43.92
2022-08-30T07:38:20.942Z,43.79
2022-08-30T07:39:23.965Z,43.47
2022-08-30T07:40:28.210Z,43.26
2022-08-30T07:41:35.175Z,42.99
2022-08-30T07:42:40.221Z,42.81
2022-08-30T07:43:43.502Z,42.44
2022-08-30T07:44:47.217Z,42.31
2022-08-30T07:45:50.364Z,42.29
2022-08-30T07:46:53.769Z,42.26
2022-08-30T07:47:57.201Z,42.25
2022-08-30T07:49:00.809Z,42.12
2022-08-30T07:50:07.536Z,42.00
2022-08-30T07:51:16.152Z,41.86
2022-08-30T07:52:19.660Z,41.66
2022-08-30T07:53:22.921Z,41.53
2022-08-30T07:54:26.225Z,41.18
2022-08-30T07:55:29.369Z,40.90
2022-08-30T07:56:32.463Z,40.84
2022-08-30T07:57:35.558Z,40.56
2022-08-30T07:58:39.163Z,40.56
2022-08-30T07:59:42.688Z,40.53
2022-08-30T08:00:45.888Z,40.56
2022-08-30T08:01:49.217Z,40.71
2022-08-30T08:02:52.509Z,40.75
2022-08-30T08:03:55.754Z,40.80
2022-08-30T08:04:59.387Z,40.78
2022-08-30T08:06:04.131Z,40.55
2022-08-30T08:07:07.204Z,40.27
2022-08-30T08:08:12.420Z,40.01
2022-08-30T08:09:15.744Z,40.10
2022-08-30T08:10:19.493Z,40.00
2022-08-30T08:11:28.352Z,39.72
2022-08-30T08:12:30.771Z,39.62
2022-08-30T08:13:36.643Z,39.56
2022-08-30T08:14:40.814Z,39.65
2022-08-30T08:15:44.176Z,39.69
2022-08-30T08:16:48.084Z,39.68
2022-08-30T08:17:51.379Z,39.70
2022-08-30T08:18:54.699Z,39.37
2022-08-30T08:19:57.936Z,38.79
2022-08-30T08:21:01.543Z,38.48
2022-08-30T08:22:19.885Z,38.31
2022-08-30T08:23:09.937Z,38.18
2022-08-30T08:24:13.262Z,38.03
2022-08-30T08:25:16.439Z,37.97
2022-08-30T08:26:20.402Z,37.89
2022-08-30T08:27:24.198Z,37.47
2022-08-30T08:28:27.299Z,37.31
2022-08-30T08:29:30.599Z,37.09
2022-08-30T08:30:36.696Z,37.11
2022-08-30T08:31:40.904Z,37.13
2022-08-30T08:32:44.270Z,37.23
2022-08-30T08:33:47.748Z,37.11
2022-08-30T08:34:50.987Z,37.20
2022-08-30T08:35:54.280Z,37.08
2022-08-30T08:36:58.282Z,37.02
2022-08-30T08:38:01.812Z,36.98
2022-08-30T08:39:07.233Z,36.95
2022-08-30T08:40:14.988Z,36.88
2022-08-30T08:41:25.058Z,37.04
2022-08-30T08:42:56.127Z,37.17
2022-08-30T08:43:59.508Z,37.12
2022-08-30T08:45:11.523Z,37.29
2022-08-30T08:46:18.216Z,37.33
2022-08-30T08:47:25.258Z,37.36
2022-08-30T08:48:59.607Z,37.29
2022-08-30T08:49:54.116Z,37.32
2022-08-30T08:51:15.717Z,37.30
2022-08-30T08:52:49.786Z,37.20
2022-08-30T08:53:59.502Z,37.22
2022-08-30T08:55:09.520Z,37.15
2022-08-30T08:56:15.977Z,37.24
2022-08-30T08:57:22.660Z,37.27
2022-08-30T08:58:30.609Z,37.30
2022-08-30T08:59:33.824Z,37.37
2022-08-30T09:00:39.001Z,37.25
2022-08-30T09:01:42.355Z,37.24
2022-08-30T09:03:00.557Z,37.33
2022-08-30T09:04:07.381Z,37.52
2022-08-30T09:05:14.196Z,37.69
2022-08-30T09:06:33.863Z,37.82
2022-08-30T09:07:40.674Z,37.79
2022-08-30T09:08:43.829Z,37.59
2022-08-30T09:09:47.357Z,37.31
2022-08-30T09:11:05.133Z,37.17
2022-08-30T09:12:10.761Z,37.21
2022-08-30T09:13:14.086Z,37.25
2022-08-30T09:14:21.300Z,37.39
2022-08-30T09:15:27.812Z,37.37
2022-08-30T09:16:54.002Z,37.27
2022-08-30T09:18:04.082Z,36.96
2022-08-30T09:19:07.486Z,36.80
2022-08-30T09:20:12.237Z,36.74
2022-08-30T09:21:18.953Z,36.90
2022-08-30T09:22:37.427Z,36.92
2022-08-30T09:23:50.233Z,36.99
2022-08-30T09:24:57.053Z,36.66
2022-08-30T09:26:06.585Z,36.76
2022-08-30T09:27:18.855Z,36.80
2022-08-30T09:28:27.141Z,36.84
2022-08-30T09:29:30.782Z,36.91
2022-08-30T09:30:34.509Z,36.99
2022-08-30T09:31:52.932Z,37.21
2022-08-30T09:32:58.667Z,37.07
2022-08-30T09:34:10.595Z,37.03
2022-08-30T09:36:30.957Z,36.74
2022-08-30T09:37:37.785Z,36.54
2022-08-30T09:38:40.912Z,36.40
2022-08-30T09:39:45.844Z,36.27
2022-08-30T09:40:52.058Z,36.13
2022-08-30T09:42:14.232Z,36.11
2022-08-30T09:43:20.916Z,35.95
2022-08-30T09:44:30.101Z,36.05
2022-08-30T09:45:39.717Z,35.92
2022-08-30T09:46:49.521Z,35.79
2022-08-30T09:47:53.751Z,35.57
2022-08-30T09:48:58.261Z,35.45
2022-08-30T09:50:09.703Z,35.46
2022-08-30T09:51:16.490Z,35.57
2022-08-30T09:52:44.475Z,35.53
2022-08-30T09:54:17.480Z,35.81
2022-08-30T09:55:28.444Z,35.65
2022-08-30T09:56:39.663Z,35.74
2022-08-30T09:58:10.582Z,35.66
2022-08-30T09:59:42.885Z,35.58
2022-08-30T10:01:06.252Z,35.53
2022-08-30T10:02:28.464Z,35.69
2022-08-30T10:03:53.599Z,35.72
2022-08-30T10:05:09.327Z,35.53
2022-08-30T10:06:17.155Z,35.50
2022-08-30T10:07:29.757Z,35.49
2022-08-30T10:08:36.321Z,35.64
2022-08-30T10:09:48.834Z,35.75
2022-08-30T10:11:03.403Z,35.82
2022-08-30T10:12:27.915Z,35.66
2022-08-30T10:13:43.616Z,35.60
2022-08-30T10:14:57.697Z,35.79
2022-08-30T10:16:10.357Z,35.87
2022-08-30T10:17:51.798Z,35.66
2022-08-30T10:19:06.308Z,35.64
2022-08-30T10:20:25.363Z,35.39
2022-08-30T10:21:44.184Z,35.26
2022-08-30T10:22:57.617Z,35.27
2022-08-30T10:24:11.645Z,35.30
2022-08-30T10:25:37.016Z,35.33
2022-08-30T10:26:49.812Z,34.97
2022-08-30T10:28:03.097Z,34.75
2022-08-30T10:29:12.952Z,34.76
2022-08-30T10:30:17.540Z,34.61
2022-08-30T10:31:32.674Z,34.57
2022-08-30T10:32:48.167Z,34.71
2022-08-30T10:33:54.646Z,34.84
2022-08-30T10:35:07.509Z,35.02
2022-08-30T10:36:13.961Z,34.94
2022-08-30T10:37:26.720Z,34.79
2022-08-30T10:38:38.851Z,34.85
2022-08-30T10:39:45.581Z,34.42
2022-08-30T10:41:10.350Z,34.41
2022-08-30T10:42:20.844Z,34.22
2022-08-30T10:43:38.132Z,34.20
2022-08-30T10:44:47.703Z,34.50
2022-08-30T10:45:53.574Z,34.54
2022-08-30T10:47:18.576Z,34.31
2022-08-30T10:48:27.106Z,34.18
2022-08-30T10:49:33.813Z,34.29
2022-08-30T10:50:46.585Z,34.54
2022-08-30T10:52:00.775Z,34.72
2022-08-30T10:53:25.147Z,34.85
2022-08-30T10:54:43.985Z,34.84
2022-08-30T10:56:08.070Z,34.86
2022-08-30T10:57:11.309Z,34.72
2022-08-30T10:58:16.055Z,34.76
2022-08-30T10:59:20.502Z,34.75
2022-08-30T11:00:29.693Z,34.93
2022-08-30T11:01:53.048Z,34.90
2022-08-30T11:03:19.588Z,34.69
2022-08-30T11:05:00.713Z,34.68
2022-08-30T11:06:22.788Z,34.61
2022-08-30T11:07:54.943Z,34.20
2022-08-30T11:09:15.210Z,33.85
2022-08-30T11:10:38.529Z,33.88
2022-08-30T11:11:54.484Z,34.07
2022-08-30T11:13:01.318Z,33.96
2022-08-30T11:14:06.663Z,33.91
2022-08-30T11:15:19.146Z,33.99
2022-08-30T11:16:44.310Z,34.04
2022-08-30T11:18:00.248Z,34.20
2022-08-30T11:19:05.931Z,34.38
2022-08-30T11:20:31.092Z,34.37
2022-08-30T11:21:38.921Z,34.03
2022-08-30T11:22:43.965Z,33.76
2022-08-30T11:24:12.282Z,33.88
2022-08-30T11:25:18.579Z,33.96
2022-08-30T11:26:49.476Z,33.78
2022-08-30T11:27:56.903Z,33.64
2022-08-30T11:29:04.313Z,33.64
2022-08-30T11:30:28.284Z,33.57
2022-08-30T11:31:37.536Z,33.65
2022-08-30T11:33:02.441Z,33.43
2022-08-30T11:34:07.841Z,33.60
2022-08-30T11:35:11.231Z,33.65
2022-08-30T11:36:37.541Z,33.74
2022-08-30T11:37:44.404Z,33.79
2022-08-30T11:38:51.325Z,33.55
2022-08-30T11:39:57.992Z,33.52
2022-08-30T11:41:09.784Z,33.49
2022-08-30T11:42:32.496Z,33.29
2022-08-30T11:43:39.555Z,33.29
2022-08-30T11:44:42.699Z,33.20
2022-08-30T11:45:50.166Z,33.29
2022-08-30T11:46:58.090Z,33.23
2022-08-30T11:48:05.165Z,33.31
2022-08-30T11:49:14.599Z,33.41
2022-08-30T11:50:28.354Z,33.30
2022-08-30T11:52:08.377Z,32.67
2022-08-30T11:53:01.365Z,32.27
2022-08-30T11:54:24.784Z,32.06
2022-08-30T11:55:49.630Z,32.01
2022-08-30T11:56:56.550Z,32.17
2022-08-30T11:58:18.819Z,31.98
2022-08-30T11:59:46.588Z,31.98
2022-08-30T12:00:54.065Z,32.19
2022-08-30T12:01:57.921Z,32.33
2022-08-30T12:03:05.489Z,32.50
2022-08-30T12:04:15.612Z,32.55
2022-08-30T12:05:40.527Z,32.40
2022-08-30T12:06:49.884Z,32.40
2022-08-30T12:08:02.067Z,32.40
2022-08-30T12:09:09.370Z,32.54
2022-08-30T12:10:16.929Z,32.58
2022-08-30T12:11:23.649Z,32.44
2022-08-30T12:12:33.433Z,32.28
2022-08-30T12:13:46.250Z,32.15
2022-08-30T12:14:53.933Z,31.94
2022-08-30T12:16:00.369Z,31.97
2022-08-30T12:17:41.940Z,31.86
2022-08-30T12:18:56.671Z,31.93
2022-08-30T12:20:00.320Z,31.79
2022-08-30T12:21:23.353Z,31.89
2022-08-30T12:22:28.376Z,31.58
2022-08-30T12:23:44.914Z,31.35
2022-08-30T12:24:49.432Z,31.26
2022-08-30T12:26:13.480Z,31.40
2022-08-30T12:27:32.718Z,31.54
2022-08-30T12:28:35.901Z,31.64
2022-08-30T12:29:43.203Z,31.86
2022-08-30T12:30:46.954Z,31.67
2022-08-30T12:32:03.352Z,31.63
2022-08-30T12:33:11.540Z,31.46
2022-08-30T12:34:27.379Z,31.39
2022-08-30T12:35:31.360Z,31.54
2022-08-30T12:36:41.071Z,31.61
2022-08-30T12:37:46.096Z,31.83
2022-08-30T12:38:51.061Z,31.97
2022-08-30T12:40:09.954Z,32.03
2022-08-30T12:41:16.762Z,31.99
2022-08-30T12:42:23.461Z,31.91
2022-08-30T12:43:38.775Z,31.83
2022-08-30T12:44:37.893Z,31.96
2022-08-30T12:45:50.514Z,32.14
2022-08-30T12:46:59.707Z,32.24
2022-08-30T12:48:10.545Z,32.72
2022-08-30T12:49:17.142Z,32.51
2022-08-30T12:50:24.071Z,32.41
2022-08-30T12:52:50.702Z,32.35
2022-08-30T12:53:55.735Z,32.37
2022-08-30T12:55:17.495Z,32.21
2022-08-30T12:56:35.110Z,32.20
2022-08-30T12:57:44.489Z,32.00
2022-08-30T12:58:51.028Z,32.00
2022-08-30T12:59:59.429Z,31.87
2022-08-30T13:01:31.337Z,31.96
2022-08-30T13:02:51.544Z,32.04
2022-08-30T13:03:58.255Z,32.08
2022-08-30T13:05:06.453Z,31.96
2022-08-30T13:06:10.308Z,32.08
2022-08-30T13:07:29.434Z,32.04
2022-08-30T13:08:37.541Z,31.92
2022-08-30T13:09:43.560Z,31.65
2022-08-30T13:10:54.323Z,31.62
2022-08-30T13:11:58.886Z,31.58
2022-08-30T13:13:04.784Z,31.33
2022-08-30T13:14:31.962Z,31.00
2022-08-30T13:15:39.400Z,30.98
2022-08-30T13:16:45.296Z,30.86
2022-08-30T13:17:47.611Z,30.96
2022-08-30T13:19:27.411Z,31.04
2022-08-30T13:20:31.317Z,31.25
2022-08-30T13:21:34.941Z,31.35
2022-08-30T13:22:42.132Z,31.32
2022-08-30T13:23:45.251Z,31.37
2022-08-30T13:24:50.848Z,31.29
2022-08-30T13:25:55.765Z,31.31
2022-08-30T13:27:06.067Z,31.55
2022-08-30T13:28:11.163Z,31.31
2022-08-30T13:29:20.052Z,31.25
2022-08-30T13:30:24.724Z,30.98
2022-08-30T13:31:30.359Z,31.15
2022-08-30T13:32:38.649Z,30.95
2022-08-30T13:33:40.574Z,30.83
2022-08-30T13:34:44.699Z,30.74
2022-08-30T13:35:47.788Z,30.76
2022-08-30T13:36:54.015Z,30.84
2022-08-30T13:37:59.402Z,30.79
2022-08-30T13:39:04.640Z,30.84
2022-08-30T13:40:10.366Z,31.01
2022-08-30T13:41:14.829Z,31.14
2022-08-30T13:42:33.324Z,31.29
2022-08-30T13:43:23.134Z,31.32
2022-08-30T13:44:28.055Z,30.99
2022-08-30T13:45:48.574Z,30.81
2022-08-30T13:46:42.095Z,30.80
2022-08-30T13:47:48.287Z,30.82
2022-08-30T13:48:54.995Z,30.94
2022-08-30T13:49:58.950Z,31.03
2022-08-30T13:51:02.255Z,30.73
2022-08-30T13:52:23.292Z,30.66
2022-08-30T13:53:13.278Z,30.68
2022-08-30T13:54:16.540Z,30.66
2022-08-30T13:55:19.794Z,30.59
2022-08-30T13:56:25.564Z,30.63
2022-08-30T13:58:35.620Z,30.68
2022-08-30T13:59:38.821Z,30.60
2022-08-30T14:00:45.425Z,30.60
2022-08-30T14:02:55.778Z,30.87
2022-08-30T14:04:15.671Z,30.74
2022-08-30T14:05:05.638Z,30.65
2022-08-30T14:06:31.658Z,30.66
2022-08-30T14:07:19.894Z,30.59
2022-08-30T14:08:47.911Z,30.42
2022-08-30T14:09:35.069Z,30.43
2022-08-30T14:10:46.450Z,30.26
2022-08-30T14:11:43.700Z,30.09
2022-08-30T14:12:56.192Z,29.93
2022-08-30T14:14:59.459Z,29.90
2022-08-30T14:17:19.233Z,29.96
2022-08-30T14:18:22.859Z,29.65
2022-08-30T14:19:27.046Z,29.34
2022-08-30T14:20:31.890Z,29.37
2022-08-30T14:21:36.006Z,29.54
2022-08-30T14:22:39.324Z,29.46
2022-08-30T14:23:42.521Z,29.30
2022-08-30T14:24:45.623Z,29.15
2022-08-30T14:25:48.913Z,29.16
2022-08-30T14:26:54.068Z,29.06
2022-08-30T14:27:57.233Z,29.06